createdAt,value
2023-04-09T00:00:30.910Z,7.14
2023-04-09T00:03:19.307Z,7.14
2023-04-09T00:05:47.335Z,7.13
2023-04-09T00:08:15.172Z,7.12
2023-04-09T00:10:43.011Z,7.11
2023-04-09T00:13:11.299Z,7.12
2023-04-09T00:15:39.140Z,7.12
2023-04-09T00:18:06.984Z,7.12
2023-04-09T00:20:34.872Z,7.12
2023-04-09T00:23:02.792Z,7.13
2023-04-09T00:25:30.908Z,7.13
2023-04-09T00:27:59.103Z,7.13
2023-04-09T00:30:30.947Z,7.14
2023-04-09T00:32:59.101Z,7.16
2023-04-09T00:35:27.213Z,7.15
2023-04-09T00:37:55.497Z,7.16
2023-04-09T00:40:23.370Z,7.15
2023-04-09T00:42:51.455Z,7.15
2023-04-09T00:45:19.526Z,7.15
2023-04-09T00:47:47.840Z,7.14
2023-04-09T00:50:17.097Z,7.15
2023-04-09T00:52:45.916Z,7.14
2023-04-09T00:55:13.978Z,7.14
2023-04-09T00:57:41.840Z,7.14
2023-04-09T01:00:11.444Z,7.13
2023-04-09T01:02:40.002Z,7.13
2023-04-09T01:05:09.040Z,7.12
2023-04-09T01:07:55.929Z,7.13
2023-04-09T01:10:45.841Z,7.14
2023-04-09T01:13:16.353Z,7.14
2023-04-09T01:15:49.444Z,7.14
2023-04-09T01:18:18.132Z,7.14
2023-04-09T01:21:13.025Z,7.14
2023-04-09T01:23:50.612Z,7.14
2023-04-09T01:26:23.094Z,7.13
2023-04-09T01:28:57.232Z,7.12
2023-04-09T01:31:28.455Z,7.12
2023-04-09T01:33:57.692Z,7.12
2023-04-09T01:36:27.460Z,7.12
2023-04-09T01:38:56.094Z,7.12
2023-04-09T01:41:24.981Z,7.11
2023-04-09T01:43:53.878Z,7.11
2023-04-09T01:46:22.273Z,7.10
2023-04-09T01:48:51.619Z,7.10
2023-04-09T01:51:19.928Z,7.08
2023-04-09T01:53:48.710Z,7.06
2023-04-09T01:56:16.609Z,7.04
2023-04-09T01:58:44.869Z,7.02
2023-04-09T02:01:14.796Z,6.98
2023-04-09T02:03:46.743Z,6.94
2023-04-09T02:06:17.096Z,6.91
2023-04-09T02:08:46.690Z,6.88
2023-04-09T02:11:15.389Z,6.85
2023-04-09T02:13:44.380Z,6.84
2023-04-09T02:16:14.325Z,6.81
2023-04-09T02:18:42.380Z,6.78
2023-04-09T02:21:11.469Z,6.75
2023-04-09T02:23:39.449Z,6.72
2023-04-09T02:26:07.428Z,6.68
2023-04-09T02:28:35.599Z,6.65
2023-04-09T02:31:04.130Z,6.63
2023-04-09T02:33:32.070Z,6.59
2023-04-09T02:36:00.470Z,6.56
2023-04-09T02:38:28.719Z,6.53
2023-04-09T02:40:56.808Z,6.50
2023-04-09T02:43:24.783Z,6.48
2023-04-09T02:45:52.732Z,6.46
2023-04-09T02:48:21.135Z,6.42
2023-04-09T02:50:48.946Z,6.39
2023-04-09T02:53:16.861Z,6.37
2023-04-09T02:55:45.058Z,6.35
2023-04-09T02:58:13.022Z,6.32
2023-04-09T03:00:41.214Z,6.30
2023-04-09T03:03:09.335Z,6.27
2023-04-09T03:05:38.196Z,6.26
2023-04-09T03:08:06.562Z,6.23
2023-04-09T03:10:34.540Z,6.20
2023-04-09T03:13:02.633Z,6.19
2023-04-09T03:15:30.584Z,6.17
2023-04-09T03:17:58.487Z,6.15
2023-04-09T03:20:26.558Z,6.13
2023-04-09T03:22:54.512Z,6.11
2023-04-09T03:25:34.813Z,6.09
2023-04-09T03:28:10.568Z,6.07
2023-04-09T03:30:44.435Z,6.06
2023-04-09T03:33:12.763Z,6.04
2023-04-09T03:35:52.892Z,6.03
2023-04-09T03:38:28.710Z,6.01
2023-04-09T03:40:57.617Z,5.99
2023-04-09T03:43:25.678Z,5.98
2023-04-09T03:45:54.182Z,5.95
2023-04-09T03:48:27.288Z,5.92
2023-04-09T03:50:55.951Z,5.89
2023-04-09T03:53:29.661Z,5.87
2023-04-09T03:56:03.095Z,5.86
2023-04-09T03:58:31.546Z,5.85
2023-04-09T04:00:59.840Z,5.84
2023-04-09T04:03:34.073Z,5.82
2023-04-09T04:06:15.830Z,5.83
2023-04-09T04:08:54.131Z,5.84
2023-04-09T04:11:24.641Z,5.85
2023-04-09T04:13:56.943Z,5.85
2023-04-09T04:16:25.376Z,5.86
2023-04-09T04:18:54.319Z,5.87
2023-04-09T04:21:23.008Z,5.86
2023-04-09T04:23:57.332Z,5.87
2023-04-09T04:26:28.266Z,5.88
2023-04-09T04:28:56.250Z,5.89
2023-04-09T04:31:42.790Z,5.90
2023-04-09T04:34:11.941Z,5.91
2023-04-09T04:36:41.484Z,5.92
2023-04-09T04:39:10.041Z,5.94
2023-04-09T04:41:48.453Z,5.95
2023-04-09T04:44:21.047Z,5.95
2023-04-09T04:46:49.929Z,5.95
2023-04-09T04:49:17.901Z,5.94
2023-04-09T04:51:48.632Z,5.91
2023-04-09T04:54:17.243Z,5.89
2023-04-09T04:56:50.636Z,5.87
2023-04-09T04:59:41.008Z,5.86
2023-04-09T05:02:11.312Z,5.85
2023-04-09T05:04:54.254Z,5.85
2023-04-09T05:07:25.504Z,5.83
2023-04-09T05:09:55.123Z,5.83
2023-04-09T05:12:23.094Z,5.81
2023-04-09T05:14:52.729Z,5.81
2023-04-09T05:17:21.022Z,5.80
2023-04-09T05:19:52.751Z,5.79
2023-04-09T05:22:23.591Z,5.79
2023-04-09T05:24:51.750Z,5.78
2023-04-09T05:27:24.314Z,5.78
2023-04-09T05:29:57.311Z,5.78
2023-04-09T05:32:26.427Z,5.77
2023-04-09T05:34:54.400Z,5.77
2023-04-09T05:37:22.691Z,5.76
2023-04-09T05:39:52.507Z,5.75
2023-04-09T05:42:20.895Z,5.73
2023-04-09T05:44:57.248Z,5.73
2023-04-09T05:47:25.430Z,5.72
2023-04-09T05:50:02.028Z,5.73
2023-04-09T05:52:29.865Z,5.73
2023-04-09T05:54:57.713Z,5.74
2023-04-09T05:57:32.321Z,5.73
2023-04-09T06:00:02.790Z,5.73
2023-04-09T06:02:31.158Z,5.73
2023-04-09T06:04:59.518Z,5.73
2023-04-09T06:07:27.531Z,5.74
2023-04-09T06:09:56.326Z,5.74
2023-04-09T06:12:24.305Z,5.75
2023-04-09T06:14:52.253Z,5.76
2023-04-09T06:17:20.287Z,5.78
2023-04-09T06:19:48.434Z,5.79
2023-04-09T06:22:16.406Z,5.81
2023-04-09T06:24:44.376Z,5.83
2023-04-09T06:27:12.222Z,5.85
2023-04-09T06:29:40.428Z,5.87
2023-04-09T06:32:08.292Z,5.90
2023-04-09T06:34:36.268Z,5.92
2023-04-09T06:37:04.462Z,5.94
2023-04-09T06:39:33.446Z,5.97
2023-04-09T06:42:01.418Z,6.00
2023-04-09T06:44:38.097Z,6.02
2023-04-09T06:47:08.028Z,6.05
2023-04-09T06:49:35.987Z,6.07
2023-04-09T06:52:04.671Z,6.09
2023-04-09T06:54:32.639Z,6.12
2023-04-09T06:57:00.829Z,6.14
2023-04-09T06:59:28.946Z,6.16
2023-04-09T07:01:57.028Z,6.19
2023-04-09T07:04:25.678Z,6.21
2023-04-09T07:06:54.970Z,6.23
2023-04-09T07:09:22.956Z,6.26
2023-04-09T07:11:51.006Z,6.29
2023-04-09T07:14:18.996Z,6.31
2023-04-09T07:16:47.175Z,6.33
2023-04-09T07:19:15.158Z,6.36
2023-04-09T07:21:43.110Z,6.38
2023-04-09T07:24:11.497Z,6.41
2023-04-09T07:26:39.592Z,6.44
2023-04-09T07:29:08.089Z,6.46
2023-04-09T07:31:36.294Z,6.49
2023-04-09T07:34:04.634Z,6.52
2023-04-09T07:36:32.639Z,6.55
2023-04-09T07:39:00.681Z,6.57
2023-04-09T07:41:28.763Z,6.60
2023-04-09T07:43:56.845Z,6.64
2023-04-09T07:46:24.929Z,6.67
2023-04-09T07:48:53.294Z,6.70
2023-04-09T07:51:21.685Z,6.73
2023-04-09T07:53:49.662Z,6.77
2023-04-09T07:56:17.533Z,6.80
2023-04-09T07:58:45.640Z,6.84
2023-04-09T08:01:13.629Z,6.88
2023-04-09T08:03:42.016Z,6.91
2023-04-09T08:06:09.946Z,6.95
2023-04-09T08:08:38.221Z,6.99
2023-04-09T08:11:07.217Z,7.03
2023-04-09T08:13:35.412Z,7.07
2023-04-09T08:16:04.140Z,7.11
2023-04-09T08:18:32.171Z,7.15
2023-04-09T08:21:04.342Z,7.19
2023-04-09T08:23:32.196Z,7.23
2023-04-09T08:26:00.183Z,7.27
2023-04-09T08:28:28.461Z,7.32
2023-04-09T08:30:56.626Z,7.37
2023-04-09T08:33:26.596Z,7.40
2023-04-09T08:35:55.046Z,7.45
2023-04-09T08:38:23.036Z,7.49
2023-04-09T08:40:50.991Z,7.53
2023-04-09T08:43:19.687Z,7.57
2023-04-09T08:45:47.832Z,7.62
2023-04-09T08:48:17.254Z,7.66
2023-04-09T08:50:46.300Z,7.71
2023-04-09T08:53:15.737Z,7.75
2023-04-09T08:55:46.925Z,7.80
2023-04-09T08:58:14.904Z,7.85
2023-04-09T09:00:43.181Z,7.89
2023-04-09T09:03:13.309Z,7.93
2023-04-09T09:05:45.162Z,7.98
2023-04-09T09:08:14.461Z,8.02
2023-04-09T09:10:46.532Z,8.06
2023-04-09T09:13:27.504Z,8.12
2023-04-09T09:16:11.785Z,8.16
2023-04-09T09:18:41.264Z,8.21
2023-04-09T09:21:12.180Z,8.26
2023-04-09T09:23:40.584Z,8.31
2023-04-09T09:26:31.580Z,8.35
2023-04-09T09:29:00.535Z,8.40
2023-04-09T09:31:28.586Z,8.44
2023-04-09T09:33:56.866Z,8.48
2023-04-09T09:36:34.506Z,8.52
2023-04-09T09:39:10.361Z,8.57
2023-04-09T09:41:42.341Z,8.61
2023-04-09T09:44:11.758Z,8.65
2023-04-09T09:46:41.632Z,8.69
2023-04-09T09:49:09.946Z,8.72
2023-04-09T09:51:39.695Z,8.76
2023-04-09T09:54:08.288Z,8.80
2023-04-09T09:56:38.197Z,8.82
2023-04-09T09:59:06.155Z,8.86
2023-04-09T10:01:36.239Z,8.89
2023-04-09T10:04:05.948Z,8.93
2023-04-09T10:06:38.790Z,8.96
2023-04-09T10:09:06.959Z,8.99
2023-04-09T10:11:36.363Z,9.02
2023-04-09T10:14:07.593Z,9.04
2023-04-09T10:16:36.295Z,9.07
2023-04-09T10:19:05.310Z,9.10
2023-04-09T10:21:39.480Z,9.13
2023-04-09T10:24:09.276Z,9.15
2023-04-09T10:26:41.117Z,9.18
2023-04-09T10:29:11.775Z,9.19
2023-04-09T10:31:53.126Z,9.22
2023-04-09T10:34:22.320Z,9.23
2023-04-09T10:36:55.408Z,9.25
2023-04-09T10:39:33.134Z,9.27
2023-04-09T10:42:04.973Z,9.29
2023-04-09T10:44:33.130Z,9.31
2023-04-09T10:47:01.213Z,9.32
2023-04-09T10:49:35.498Z,9.34
2023-04-09T10:52:04.848Z,9.36
2023-04-09T10:54:32.922Z,9.37
2023-04-09T10:57:10.910Z,9.38
2023-04-09T10:59:42.377Z,9.40
2023-04-09T11:02:31.059Z,9.42
2023-04-09T11:05:18.014Z,9.43
2023-04-09T11:08:12.851Z,9.45
2023-04-09T11:10:42.215Z,9.48
2023-04-09T11:13:13.818Z,9.49
2023-04-09T11:15:42.366Z,9.51
2023-04-09T11:18:14.118Z,9.53
2023-04-09T11:20:42.237Z,9.54
2023-04-09T11:23:10.983Z,9.56
2023-04-09T11:25:38.893Z,9.58
2023-04-09T11:28:08.180Z,9.60
2023-04-09T11:30:37.597Z,9.62
2023-04-09T11:33:07.103Z,9.64
2023-04-09T11:35:36.636Z,9.66
2023-04-09T11:38:11.422Z,9.70
2023-04-09T11:40:48.933Z,9.75
2023-04-09T11:43:18.094Z,9.79
2023-04-09T11:45:49.766Z,9.85
2023-04-09T11:48:18.745Z,9.90
2023-04-09T11:50:47.566Z,9.95
2023-04-09T11:53:16.348Z,10.00
2023-04-09T11:55:46.881Z,10.06
2023-04-09T11:58:14.956Z,10.11
2023-04-09T12:00:43.033Z,10.16
2023-04-09T12:03:12.132Z,10.22
2023-04-09T12:05:49.299Z,10.29
2023-04-09T12:08:22.708Z,10.34
2023-04-09T12:10:53.639Z,10.40
2023-04-09T12:13:22.065Z,10.45
2023-04-09T12:15:50.153Z,10.50
2023-04-09T12:18:18.301Z,10.56
2023-04-09T12:20:47.743Z,10.60
2023-04-09T12:23:16.019Z,10.64
2023-04-09T12:25:45.510Z,10.69
2023-04-09T12:28:18.482Z,10.73
2023-04-09T12:30:47.196Z,10.75
2023-04-09T12:33:15.561Z,10.79
2023-04-09T12:35:43.772Z,10.82
2023-04-09T12:38:11.923Z,10.84
2023-04-09T12:40:39.897Z,10.87
2023-04-09T12:43:08.030Z,10.89
2023-04-09T12:45:36.737Z,10.92
2023-04-09T12:48:04.792Z,10.93
2023-04-09T12:50:33.544Z,10.96
2023-04-09T12:53:01.509Z,10.97
2023-04-09T12:55:29.792Z,10.99
2023-04-09T12:57:58.382Z,11.01
2023-04-09T13:00:31.047Z,11.02
2023-04-09T13:02:59.212Z,11.04
2023-04-09T13:05:27.321Z,11.05
2023-04-09T13:07:55.190Z,11.06
2023-04-09T13:10:23.254Z,11.08
2023-04-09T13:12:51.651Z,11.09
2023-04-09T13:15:19.625Z,11.11
2023-04-09T13:17:47.836Z,11.12
2023-04-09T13:20:15.999Z,11.14
2023-04-09T13:22:48.768Z,11.15
2023-04-09T13:25:16.980Z,11.16
2023-04-09T13:27:44.875Z,11.17
2023-04-09T13:30:12.992Z,11.18
2023-04-09T13:32:41.414Z,11.18
2023-04-09T13:35:10.476Z,11.20
2023-04-09T13:37:38.340Z,11.20
2023-04-09T13:40:09.028Z,11.20
2023-04-09T13:42:39.575Z,11.19
2023-04-09T13:45:07.617Z,11.18
2023-04-09T13:47:35.586Z,11.16
2023-04-09T13:50:04.019Z,11.15
2023-04-09T13:52:32.334Z,11.12
2023-04-09T13:55:00.717Z,11.11
2023-04-09T13:57:28.669Z,11.09
2023-04-09T13:59:56.671Z,11.08
2023-04-09T14:02:24.939Z,11.04
2023-04-09T14:04:53.135Z,11.02
2023-04-09T14:07:21.206Z,11.00
2023-04-09T14:09:50.905Z,10.98
2023-04-09T14:12:18.784Z,10.96
2023-04-09T14:14:46.780Z,10.94
2023-04-09T14:17:14.737Z,10.92
2023-04-09T14:19:42.607Z,10.90
2023-04-09T14:22:11.605Z,10.88
2023-04-09T14:24:42.642Z,10.87
2023-04-09T14:27:10.782Z,10.85
2023-04-09T14:29:38.668Z,10.83
2023-04-09T14:32:06.580Z,10.82
2023-04-09T14:34:34.512Z,10.81
2023-04-09T14:37:02.807Z,10.79
2023-04-09T14:39:30.995Z,10.79
2023-04-09T14:41:58.850Z,10.78
2023-04-09T14:44:27.414Z,10.76
2023-04-09T14:46:56.306Z,10.75
2023-04-09T14:49:24.465Z,10.75
2023-04-09T14:51:52.512Z,10.74
2023-04-09T14:54:20.490Z,10.73
2023-04-09T14:56:48.579Z,10.72
2023-04-09T14:59:16.564Z,10.72
2023-04-09T15:01:44.661Z,10.70
2023-04-09T15:04:12.948Z,10.70
2023-04-09T15:06:40.977Z,10.70
2023-04-09T15:09:09.139Z,10.69
2023-04-09T15:11:37.031Z,10.69
2023-04-09T15:14:04.849Z,10.68
2023-04-09T15:16:33.540Z,10.68
2023-04-09T15:19:02.894Z,10.68
2023-04-09T15:21:31.763Z,10.68
2023-04-09T15:24:00.391Z,10.68
2023-04-09T15:26:28.550Z,10.67
2023-04-09T15:29:06.628Z,10.68
2023-04-09T15:31:34.672Z,10.67
2023-04-09T15:34:02.651Z,10.67
2023-04-09T15:36:31.745Z,10.67
2023-04-09T15:38:59.772Z,10.67
2023-04-09T15:41:27.816Z,10.67
2023-04-09T15:43:55.935Z,10.67
2023-04-09T15:46:24.055Z,10.68
2023-04-09T15:48:52.413Z,10.68
2023-04-09T15:51:21.301Z,10.67
2023-04-09T15:53:49.151Z,10.65
2023-04-09T15:56:17.139Z,10.63
2023-04-09T15:58:45.832Z,10.62
2023-04-09T16:01:14.600Z,10.60
2023-04-09T16:03:42.503Z,10.59
2023-04-09T16:06:13.407Z,10.59
2023-04-09T16:08:41.516Z,10.57
2023-04-09T16:11:09.786Z,10.54
2023-04-09T16:13:37.723Z,10.51
2023-04-09T16:16:07.085Z,10.47
2023-04-09T16:18:35.665Z,10.42
2023-04-09T16:21:04.340Z,10.35
2023-04-09T16:23:33.255Z,10.29
2023-04-09T16:26:01.329Z,10.21
2023-04-09T16:28:29.229Z,10.14
2023-04-09T16:30:57.378Z,10.08
2023-04-09T16:33:25.867Z,10.00
2023-04-09T16:35:53.809Z,9.92
2023-04-09T16:38:23.655Z,9.85
2023-04-09T16:40:51.634Z,9.79
2023-04-09T16:43:19.513Z,9.72
2023-04-09T16:45:47.597Z,9.66
2023-04-09T16:48:15.790Z,9.59
2023-04-09T16:50:43.830Z,9.52
2023-04-09T16:53:11.916Z,9.45
2023-04-09T16:55:40.063Z,9.38
2023-04-09T16:58:08.159Z,9.32
2023-04-09T17:00:36.236Z,9.27
2023-04-09T17:03:04.431Z,9.21
2023-04-09T17:05:32.899Z,9.16
2023-04-09T17:08:01.278Z,9.11
2023-04-09T17:10:29.173Z,9.04
2023-04-09T17:12:57.127Z,9.00
2023-04-09T17:15:26.012Z,8.95
2023-04-09T17:17:54.149Z,8.90
2023-04-09T17:20:22.896Z,8.84
2023-04-09T17:22:51.066Z,8.78
2023-04-09T17:25:20.479Z,8.73
2023-04-09T17:27:49.594Z,8.70
2023-04-09T17:30:17.770Z,8.66
2023-04-09T17:32:46.174Z,8.63
2023-04-09T17:35:14.415Z,8.64
2023-04-09T17:37:42.295Z,8.64
2023-04-09T17:40:12.437Z,8.64
2023-04-09T17:42:40.915Z,8.65
2023-04-09T17:45:09.206Z,8.64
2023-04-09T17:47:37.307Z,8.63
2023-04-09T17:50:07.597Z,8.61
2023-04-09T17:52:37.340Z,8.61
2023-04-09T17:55:07.217Z,8.62
2023-04-09T17:57:36.169Z,8.66
2023-04-09T18:00:04.843Z,8.69
2023-04-09T18:02:33.720Z,8.72
2023-04-09T18:05:04.613Z,8.76
2023-04-09T18:07:36.100Z,8.79
2023-04-09T18:10:04.344Z,8.81
2023-04-09T18:12:33.790Z,8.82
2023-04-09T18:15:03.232Z,8.84
2023-04-09T18:17:32.615Z,8.85
2023-04-09T18:20:01.079Z,8.84
2023-04-09T18:22:31.302Z,8.85
2023-04-09T18:24:59.240Z,8.84
2023-04-09T18:27:27.169Z,8.84
2023-04-09T18:29:56.078Z,8.84
2023-04-09T18:32:25.579Z,8.83
2023-04-09T18:34:53.811Z,8.83
2023-04-09T18:37:23.228Z,8.83
2023-04-09T18:39:51.813Z,8.82
2023-04-09T18:42:21.717Z,8.81
2023-04-09T18:44:51.583Z,8.81
2023-04-09T18:47:20.942Z,8.80
2023-04-09T18:49:48.850Z,8.79
2023-04-09T18:52:17.586Z,8.77
2023-04-09T18:54:46.304Z,8.77
2023-04-09T18:57:14.392Z,8.76
2023-04-09T18:59:45.708Z,8.75
2023-04-09T19:02:13.998Z,8.75
2023-04-09T19:04:42.966Z,8.73
2023-04-09T19:07:11.358Z,8.72
2023-04-09T19:09:40.437Z,8.72
2023-04-09T19:12:08.710Z,8.71
2023-04-09T19:14:40.398Z,8.70
2023-04-09T19:17:10.404Z,8.68
2023-04-09T19:19:38.592Z,8.66
2023-04-09T19:22:07.726Z,8.65
2023-04-09T19:24:36.384Z,8.63
2023-04-09T19:27:10.124Z,8.62
2023-04-09T19:29:38.231Z,8.61
2023-04-09T19:32:09.564Z,8.59
2023-04-09T19:34:38.924Z,8.56
2023-04-09T19:37:08.203Z,8.54
2023-04-09T19:39:37.119Z,8.52
2023-04-09T19:42:06.046Z,8.49
2023-04-09T19:44:34.580Z,8.46
2023-04-09T19:47:03.041Z,8.44
2023-04-09T19:49:31.660Z,8.41
2023-04-09T19:52:00.926Z,8.37
2023-04-09T19:54:30.762Z,8.34
2023-04-09T19:57:00.896Z,8.30
2023-04-09T19:59:29.483Z,8.28
2023-04-09T20:02:00.208Z,8.26
2023-04-09T20:04:31.538Z,8.23
2023-04-09T20:07:00.560Z,8.21
2023-04-09T20:09:29.181Z,8.19
2023-04-09T20:11:59.057Z,8.17
2023-04-09T20:14:29.307Z,8.15
2023-04-09T20:16:57.721Z,8.12
2023-04-09T20:19:28.375Z,8.09
2023-04-09T20:21:57.828Z,8.06
2023-04-09T20:24:28.279Z,8.03
2023-04-09T20:26:59.648Z,7.99
2023-04-09T20:29:28.047Z,7.97
2023-04-09T20:31:57.142Z,7.95
2023-04-09T20:34:27.135Z,7.92
2023-04-09T20:36:56.843Z,7.89
2023-04-09T20:39:26.916Z,7.86
2023-04-09T20:41:56.727Z,7.84
2023-04-09T20:44:25.162Z,7.82
2023-04-09T20:46:53.764Z,7.78
2023-04-09T20:49:22.693Z,7.74
2023-04-09T20:51:52.013Z,7.72
2023-04-09T20:54:22.908Z,7.69
2023-04-09T20:56:51.521Z,7.66
2023-04-09T20:59:20.367Z,7.63
2023-04-09T21:01:48.636Z,7.59
2023-04-09T21:04:16.952Z,7.56
2023-04-09T21:06:47.912Z,7.52
2023-04-09T21:09:16.308Z,7.49
2023-04-09T21:11:45.720Z,7.46
2023-04-09T21:14:14.802Z,7.43
2023-04-09T21:16:45.389Z,7.41
2023-04-09T21:19:14.350Z,7.38
2023-04-09T21:21:43.841Z,7.37
2023-04-09T21:24:13.843Z,7.33
2023-04-09T21:26:51.260Z,7.32
2023-04-09T21:29:21.414Z,7.30
2023-04-09T21:31:49.406Z,7.28
2023-04-09T21:34:18.033Z,7.26
2023-04-09T21:36:47.315Z,7.24
2023-04-09T21:39:15.752Z,7.23
2023-04-09T21:41:44.098Z,7.21
2023-04-09T21:44:13.743Z,7.19
2023-04-09T21:46:42.349Z,7.19
2023-04-09T21:49:10.643Z,7.18
2023-04-09T21:51:40.180Z,7.18
2023-04-09T21:54:09.944Z,7.17
2023-04-09T21:56:38.964Z,7.16
2023-04-09T21:59:07.988Z,7.15
2023-04-09T22:01:36.009Z,7.15
2023-04-09T22:04:04.564Z,7.14
2023-04-09T22:06:32.640Z,7.14
2023-04-09T22:09:02.175Z,7.14
2023-04-09T22:11:30.631Z,7.14
2023-04-09T22:14:01.577Z,7.12
2023-04-09T22:16:30.032Z,7.12
2023-04-09T22:18:58.204Z,7.10
2023-04-09T22:21:28.390Z,7.10
2023-04-09T22:23:56.433Z,7.09
2023-04-09T22:26:25.904Z,7.08
2023-04-09T22:28:54.263Z,7.07
2023-04-09T22:31:22.958Z,7.06
2023-04-09T22:33:51.339Z,7.06
2023-04-09T22:36:19.350Z,7.05
2023-04-09T22:38:47.608Z,7.04
2023-04-09T22:41:17.755Z,7.04
2023-04-09T22:43:46.842Z,7.04
2023-04-09T22:46:15.547Z,7.03
2023-04-09T22:48:45.205Z,7.03
2023-04-09T22:51:15.872Z,7.01
2023-04-09T22:53:43.990Z,7.01
2023-04-09T22:56:12.841Z,7.00
2023-04-09T22:58:41.718Z,6.99
2023-04-09T23:01:11.827Z,6.99
2023-04-09T23:03:40.205Z,6.98
2023-04-09T23:06:08.488Z,6.97
2023-04-09T23:08:36.553Z,6.97
2023-04-09T23:11:07.320Z,6.95
2023-04-09T23:13:35.364Z,6.93
2023-04-09T23:16:07.603Z,6.92
2023-04-09T23:18:36.704Z,6.91
2023-04-09T23:21:08.631Z,6.90
2023-04-09T23:23:37.719Z,6.89
2023-04-09T23:26:06.827Z,6.88
2023-04-09T23:28:35.599Z,6.86
2023-04-09T23:31:05.279Z,6.85
2023-04-09T23:33:34.660Z,6.84
2023-04-09T23:36:02.904Z,6.83
2023-04-09T23:38:31.948Z,6.80
2023-04-09T23:41:01.637Z,6.79
2023-04-09T23:43:30.663Z,6.77
2023-04-09T23:45:58.674Z,6.76
2023-04-09T23:48:27.958Z,6.74
2023-04-09T23:50:56.064Z,6.73
2023-04-09T23:53:26.047Z,6.72
2023-04-09T23:55:54.046Z,6.70
2023-04-09T23:58:23.408Z,6.69
